Time;durP1;ratioP1;P1;durP2;ratioP2;P2;SDS_P1;SDS_P2;PMS_P1;PMS_P2;Temp;Humidity;BMP_temperature;BMP_pressure;BME280_temperature;BME280_humidity;BME280_pressure;Samples;Min_cycle;Max_cycle;Signal;HPM_P1;HPM_P2
2023/12/18 00:02:00;;;;;;;;;;;8.20;99.90;;;;;;5078904;28;20503;-59
2023/12/18 00:04:25;;;;;;;;;;;8.10;99.90;;;;;;5059318;28;19926;-58
2023/12/18 00:06:51;;;;;;;;;;;8.10;99.90;;;;;;5077900;28;19940;-59
2023/12/18 00:09:17;;;;;;;;;;;8.10;99.90;;;;;;5046570;28;19986;-58
2023/12/18 00:11:42;;;;;;;;;;;8.10;99.90;;;;;;5070464;28;19973;-58
2023/12/18 00:14:08;;;;;;;;;;;8.10;99.90;;;;;;5072456;28;19928;-59
2023/12/18 00:16:34;;;;;;;;;;;8.10;99.90;;;;;;5069575;28;19971;-59
2023/12/18 00:18:59;;;;;;;;;;;8.10;99.90;;;;;;5070354;28;19930;-59
2023/12/18 00:21:25;;;;;;;;;;;8.00;99.90;;;;;;5074107;28;19924;-58
2023/12/18 00:23:50;;;;;;;;;;;8.00;99.90;;;;;;5076076;28;20306;-59
2023/12/18 00:26:16;;;;;;;;;;;8.00;99.90;;;;;;5068231;28;20283;-59
2023/12/18 00:28:41;;;;;;;;;;;8.00;99.90;;;;;;5074759;28;19919;-58
2023/12/18 00:31:07;;;;;;;;;;;8.00;99.90;;;;;;5059124;28;20401;-59
2023/12/18 00:33:33;;;;;;;;;;;8.00;99.90;;;;;;5074899;28;20003;-58
2023/12/18 00:35:58;;;;;;;;;;;8.00;99.90;;;;;;5070873;28;20000;-59
2023/12/18 00:38:24;;;;;;;;;;;8.00;99.90;;;;;;5064785;28;20225;-59
2023/12/18 00:40:49;;;;;;;;;;;8.00;99.90;;;;;;5050775;28;19920;-59
2023/12/18 00:43:15;;;;;;;;;;;8.00;99.90;;;;;;5048877;28;19939;-58
2023/12/18 00:45:40;;;;;;;;;;;8.00;99.90;;;;;;5063715;28;19923;-59
2023/12/18 00:48:06;;;;;;;;;;;8.00;99.90;;;;;;5067189;28;19923;-59
2023/12/18 00:50:32;;;;;;;;;;;8.00;99.90;;;;;;5064105;28;20490;-59
2023/12/18 00:52:57;;;;;;;;;;;8.10;99.90;;;;;;5068033;28;19920;-57
2023/12/18 00:55:23;;;;;;;;;;;8.00;99.90;;;;;;5068753;28;19931;-58
2023/12/18 00:57:48;;;;;;;;;;;8.00;99.90;;;;;;5077264;28;20168;-59
2023/12/18 01:00:14;;;;;;;;;;;8.00;99.90;;;;;;5061409;28;19924;-59
2023/12/18 01:02:40;;;;;;;;;;;8.00;99.90;;;;;;5070859;28;20793;-58
2023/12/18 01:05:05;;;;;;;;;;;8.00;99.90;;;;;;5072451;28;19973;-60
2023/12/18 01:07:31;;;;;;;;;;;8.00;99.90;;;;;;5073084;28;19924;-58
2023/12/18 01:10:00;;;;;;;;;;;8.00;99.90;;;;;;5074790;28;19924;-59
2023/12/18 01:12:26;;;;;;;;;;;8.10;99.90;;;;;;5066614;28;19986;-59
2023/12/18 01:14:51;;;;;;;;;;;8.00;99.90;;;;;;5071297;28;20945;-58
2023/12/18 01:17:17;;;;;;;;;;;8.10;99.90;;;;;;5072372;28;20399;-59
2023/12/18 01:19:42;;;;;;;;;;;8.10;99.90;;;;;;5071811;28;19935;-58
2023/12/18 01:22:08;;;;;;;;;;;8.10;99.90;;;;;;5063769;28;19962;-58
2023/12/18 01:24:34;;;;;;;;;;;8.00;99.90;;;;;;5040994;28;20364;-58
2023/12/18 01:26:59;;;;;;;;;;;8.10;99.90;;;;;;5071337;28;19933;-59
2023/12/18 01:29:25;;;;;;;;;;;8.10;99.90;;;;;;5058531;28;19930;-58
2023/12/18 01:31:50;;;;;;;;;;;8.10;99.90;;;;;;5049040;28;20370;-59
2023/12/18 01:34:16;;;;;;;;;;;8.10;99.90;;;;;;5075211;28;19923;-58
2023/12/18 01:36:41;;;;;;;;;;;8.10;99.90;;;;;;5072933;28;20386;-58
2023/12/18 01:39:07;;;;;;;;;;;8.10;99.90;;;;;;5076596;28;19931;-58
2023/12/18 01:41:32;;;;;;;;;;;8.10;99.90;;;;;;5074948;28;19923;-58
2023/12/18 01:43:58;;;;;;;;;;;8.10;99.90;;;;;;5036850;28;19923;-60
2023/12/18 01:46:24;;;;;;;;;;;8.10;99.90;;;;;;5052138;28;20282;-57
2023/12/18 01:48:50;;;;;;;;;;;8.10;99.90;;;;;;5079035;28;20400;-59
2023/12/18 01:51:17;;;;;;;;;;;8.10;99.90;;;;;;5070554;28;20337;-59
2023/12/18 01:53:44;;;;;;;;;;;8.10;99.90;;;;;;5075677;28;19923;-59
2023/12/18 01:56:14;;;;;;;;;;;8.10;99.90;;;;;;5076405;28;19923;-59
2023/12/18 01:58:40;;;;;;;;;;;8.10;99.90;;;;;;5071651;28;20022;-58
2023/12/18 02:01:06;;;;;;;;;;;8.10;99.90;;;;;;5063653;28;20338;-59
2023/12/18 02:03:33;;;;;;;;;;;8.10;99.90;;;;;;5080962;28;19949;-59
2023/12/18 02:05:59;;;;;;;;;;;8.10;99.90;;;;;;5072451;28;19973;-58
2023/12/18 02:08:25;;;;;;;;;;;8.20;99.90;;;;;;5050690;28;19924;-58
2023/12/18 02:10:51;;;;;;;;;;;8.20;99.90;;;;;;5058270;28;20309;-59
2023/12/18 02:13:16;;;;;;;;;;;8.20;99.90;;;;;;5072469;28;19924;-59
2023/12/18 02:15:42;;;;;;;;;;;8.20;99.90;;;;;;5070820;28;20435;-58
2023/12/18 02:18:07;;;;;;;;;;;8.20;99.90;;;;;;5070850;28;19915;-58
2023/12/18 02:20:33;;;;;;;;;;;8.20;99.90;;;;;;5050014;28;19920;-59
2023/12/18 02:22:59;;;;;;;;;;;8.20;99.90;;;;;;5052200;28;19919;-58
2023/12/18 02:25:24;;;;;;;;;;;8.20;99.90;;;;;;5073693;28;20480;-58
2023/12/18 02:27:50;;;;;;;;;;;8.20;99.90;;;;;;5075664;28;19916;-59
2023/12/18 02:30:19;;;;;;;;;;;8.20;99.90;;;;;;5077562;28;19923;-59
2023/12/18 02:32:45;;;;;;;;;;;8.30;99.90;;;;;;5056762;28;19924;-59
2023/12/18 02:35:11;;;;;;;;;;;8.30;99.90;;;;;;5074666;28;20370;-59
2023/12/18 02:37:37;;;;;;;;;;;8.30;99.90;;;;;;5075320;28;20370;-58
2023/12/18 02:40:03;;;;;;;;;;;8.20;99.90;;;;;;5076035;28;20296;-57
2023/12/18 02:42:28;;;;;;;;;;;8.20;99.90;;;;;;5076882;28;20315;-59
2023/12/18 02:44:54;;;;;;;;;;;8.20;99.90;;;;;;5072521;28;19927;-59
2023/12/18 02:47:20;;;;;;;;;;;8.20;99.90;;;;;;5068964;28;20511;-58
2023/12/18 02:49:45;;;;;;;;;;;8.20;99.90;;;;;;5076795;28;19920;-59
2023/12/18 02:52:11;;;;;;;;;;;8.20;99.90;;;;;;5073377;28;20950;-59
2023/12/18 02:54:37;;;;;;;;;;;8.30;99.90;;;;;;5075329;28;19924;-59
2023/12/18 02:57:02;;;;;;;;;;;8.20;99.90;;;;;;5053802;28;19920;-59
2023/12/18 02:59:28;;;;;;;;;;;8.30;99.90;;;;;;5072814;28;19927;-59
2023/12/18 03:01:54;;;;;;;;;;;8.30;99.90;;;;;;5074825;28;20011;-58
2023/12/18 03:04:20;;;;;;;;;;;8.30;99.90;;;;;;5053377;28;19927;-59
2023/12/18 03:06:45;;;;;;;;;;;8.30;99.90;;;;;;5054702;28;20416;-59
2023/12/18 03:09:11;;;;;;;;;;;8.30;99.90;;;;;;5072667;28;20464;-59
2023/12/18 03:11:37;;;;;;;;;;;8.30;99.90;;;;;;5076737;28;19916;-59
2023/12/18 03:14:02;;;;;;;;;;;8.30;99.90;;;;;;5063894;28;19919;-58
2023/12/18 03:16:28;;;;;;;;;;;8.30;99.90;;;;;;5072602;28;20004;-58
2023/12/18 03:18:53;;;;;;;;;;;8.30;99.90;;;;;;5075027;28;20290;-59
2023/12/18 03:21:19;;;;;;;;;;;8.30;99.90;;;;;;5079806;28;19924;-58
2023/12/18 03:23:45;;;;;;;;;;;8.30;99.90;;;;;;5049985;28;19928;-59
2023/12/18 03:26:10;;;;;;;;;;;8.40;99.90;;;;;;5052394;28;19925;-58
2023/12/18 03:28:36;;;;;;;;;;;8.40;99.90;;;;;;5051145;28;19924;-59
2023/12/18 03:31:01;;;;;;;;;;;8.40;99.90;;;;;;5057047;28;19924;-58
2023/12/18 03:33:27;;;;;;;;;;;8.40;99.90;;;;;;5059569;28;20017;-59
2023/12/18 03:35:52;;;;;;;;;;;8.40;99.90;;;;;;5057121;28;19916;-58
2023/12/18 03:38:18;;;;;;;;;;;8.40;99.90;;;;;;5057281;28;20003;-59
2023/12/18 03:40:44;;;;;;;;;;;8.40;99.90;;;;;;5059625;28;19920;-59
2023/12/18 03:43:09;;;;;;;;;;;8.40;99.90;;;;;;5057507;28;19992;-59
2023/12/18 03:45:35;;;;;;;;;;;8.40;99.90;;;;;;5040797;28;19923;-58
2023/12/18 03:48:00;;;;;;;;;;;8.40;99.90;;;;;;5054716;28;19981;-59
2023/12/18 03:50:26;;;;;;;;;;;8.40;99.90;;;;;;5057278;28;20002;-58
2023/12/18 03:52:51;;;;;;;;;;;8.30;99.90;;;;;;5058507;28;19920;-58
2023/12/18 03:55:17;;;;;;;;;;;8.30;99.90;;;;;;5062721;28;19920;-58
2023/12/18 03:57:42;;;;;;;;;;;8.30;99.90;;;;;;5055945;28;19920;-59
2023/12/18 04:00:08;;;;;;;;;;;8.30;99.90;;;;;;5057467;28;20345;-59
2023/12/18 04:02:34;;;;;;;;;;;8.30;99.90;;;;;;5054150;28;20265;-59
2023/12/18 04:04:59;;;;;;;;;;;8.30;99.90;;;;;;5050890;28;19931;-59
2023/12/18 04:07:25;;;;;;;;;;;8.30;99.90;;;;;;5056652;28;19924;-58
2023/12/18 04:09:50;;;;;;;;;;;8.30;99.90;;;;;;5057755;28;19920;-59
2023/12/18 04:12:16;;;;;;;;;;;8.30;99.90;;;;;;5056997;28;19955;-59
2023/12/18 04:14:43;;;;;;;;;;;8.20;99.90;;;;;;5052355;28;20379;-59
2023/12/18 04:17:08;;;;;;;;;;;8.20;99.90;;;;;;5050610;28;19929;-58
2023/12/18 04:19:34;;;;;;;;;;;8.30;99.90;;;;;;5041443;28;19993;-58
2023/12/18 04:21:59;;;;;;;;;;;8.20;99.90;;;;;;5050409;28;19935;-58
2023/12/18 04:24:25;;;;;;;;;;;8.20;99.90;;;;;;5048020;28;19928;-57
2023/12/18 04:26:50;;;;;;;;;;;8.20;99.90;;;;;;5050019;28;20457;-60
2023/12/18 04:29:17;;;;;;;;;;;8.20;99.90;;;;;;5050917;28;19927;-58
2023/12/18 04:31:43;;;;;;;;;;;8.20;99.90;;;;;;5045405;28;19973;-59
2023/12/18 04:34:08;;;;;;;;;;;8.20;99.90;;;;;;5050321;28;19924;-59
2023/12/18 04:36:40;;;;;;;;;;;8.20;99.90;;;;;;5050670;28;20697;-59
2023/12/18 04:39:06;;;;;;;;;;;8.20;99.90;;;;;;5049643;28;19924;-59
2023/12/18 04:41:32;;;;;;;;;;;8.20;99.90;;;;;;5054729;28;20437;-59
2023/12/18 04:43:58;;;;;;;;;;;8.20;99.90;;;;;;5053690;28;20000;-59
2023/12/18 04:46:24;;;;;;;;;;;8.20;99.90;;;;;;5054461;28;20775;-59
2023/12/18 04:48:49;;;;;;;;;;;8.20;99.90;;;;;;5051312;28;19924;-58
2023/12/18 04:51:15;;;;;;;;;;;8.20;99.90;;;;;;5047077;28;19927;-59
2023/12/18 04:53:41;;;;;;;;;;;8.20;99.90;;;;;;5052390;28;20362;-58
2023/12/18 04:56:06;;;;;;;;;;;8.20;99.90;;;;;;5051039;28;20417;-59
2023/12/18 04:58:34;;;;;;;;;;;8.20;99.90;;;;;;5052311;28;19921;-59
2023/12/18 05:01:00;;;;;;;;;;;8.20;99.90;;;;;;5049723;28;19935;-59
2023/12/18 05:03:25;;;;;;;;;;;8.30;99.90;;;;;;5040846;28;19928;-58
2023/12/18 05:05:51;;;;;;;;;;;8.30;99.90;;;;;;5049385;28;19917;-59
2023/12/18 05:08:16;;;;;;;;;;;8.30;99.90;;;;;;5049933;28;20204;-59
2023/12/18 05:10:42;;;;;;;;;;;8.30;99.90;;;;;;5053518;28;20324;-59
2023/12/18 05:13:08;;;;;;;;;;;8.30;99.90;;;;;;5055939;28;19920;-59
2023/12/18 05:15:33;;;;;;;;;;;8.30;99.90;;;;;;5053827;28;19916;-59
2023/12/18 05:17:59;;;;;;;;;;;8.30;99.90;;;;;;5053384;28;19966;-59
2023/12/18 05:20:24;;;;;;;;;;;8.30;99.90;;;;;;5049567;28;19973;-58
2023/12/18 05:22:50;;;;;;;;;;;8.30;99.90;;;;;;5033618;28;19928;-59
2023/12/18 05:25:15;;;;;;;;;;;8.30;99.90;;;;;;5045974;28;19951;-59
2023/12/18 05:27:41;;;;;;;;;;;8.30;99.90;;;;;;5055137;28;19926;-59
2023/12/18 05:30:07;;;;;;;;;;;8.30;99.90;;;;;;5069645;28;20362;-57
2023/12/18 05:32:32;;;;;;;;;;;8.40;99.90;;;;;;5049904;28;19924;-59
2023/12/18 05:34:58;;;;;;;;;;;8.40;99.90;;;;;;5078905;28;20010;-58
2023/12/18 05:37:24;;;;;;;;;;;8.40;99.90;;;;;;5074436;28;20365;-59
2023/12/18 05:39:49;;;;;;;;;;;8.40;99.90;;;;;;5079285;28;19926;-58
2023/12/18 05:42:15;;;;;;;;;;;8.40;99.90;;;;;;5073250;28;19916;-59
2023/12/18 05:44:41;;;;;;;;;;;8.40;99.90;;;;;;5075956;28;20062;-59
2023/12/18 05:47:06;;;;;;;;;;;8.40;99.90;;;;;;5070291;28;20519;-58
2023/12/18 05:49:32;;;;;;;;;;;8.40;99.90;;;;;;5070416;28;20014;-59
2023/12/18 05:51:57;;;;;;;;;;;8.40;99.90;;;;;;5057311;28;20009;-57
2023/12/18 05:54:25;;;;;;;;;;;8.40;99.90;;;;;;5069770;28;19924;-58
2023/12/18 05:56:51;;;;;;;;;;;8.40;99.90;;;;;;5074076;28;19924;-59
2023/12/18 05:59:16;;;;;;;;;;;8.40;99.90;;;;;;5075176;28;20298;-59
2023/12/18 06:01:42;;;;;;;;;;;8.40;99.90;;;;;;5074566;28;25644;-59
2023/12/18 06:04:08;;;;;;;;;;;8.40;99.90;;;;;;5077438;28;19924;-58
2023/12/18 06:06:33;;;;;;;;;;;8.40;99.90;;;;;;5059359;28;20026;-59
2023/12/18 06:08:59;;;;;;;;;;;8.40;99.90;;;;;;5075800;28;19961;-58
2023/12/18 06:11:24;;;;;;;;;;;8.40;99.90;;;;;;5062740;28;20201;-58
2023/12/18 06:13:50;;;;;;;;;;;8.40;99.90;;;;;;5078818;28;20018;-59
2023/12/18 06:16:15;;;;;;;;;;;8.40;99.90;;;;;;5060471;28;19925;-58
2023/12/18 06:18:41;;;;;;;;;;;8.40;99.90;;;;;;5076351;28;19962;-57
2023/12/18 06:21:07;;;;;;;;;;;8.40;99.90;;;;;;5072609;28;19924;-58
2023/12/18 06:23:32;;;;;;;;;;;8.40;99.90;;;;;;5051252;28;19927;-59
2023/12/18 06:25:58;;;;;;;;;;;8.50;99.90;;;;;;5058300;28;19942;-59
2023/12/18 06:28:23;;;;;;;;;;;8.40;99.90;;;;;;5071581;28;19945;-56
2023/12/18 06:30:49;;;;;;;;;;;8.40;99.90;;;;;;5078228;28;20004;-59
2023/12/18 06:33:15;;;;;;;;;;;8.50;99.90;;;;;;5079218;28;19924;-58
2023/12/18 06:35:41;;;;;;;;;;;8.50;99.90;;;;;;5069882;28;20431;-59
2023/12/18 06:38:06;;;;;;;;;;;8.40;99.90;;;;;;5071163;28;19993;-59
2023/12/18 06:40:32;;;;;;;;;;;8.50;99.90;;;;;;5070482;28;19920;-59
2023/12/18 06:42:58;;;;;;;;;;;8.40;99.90;;;;;;5080533;28;20429;-59
2023/12/18 06:45:23;;;;;;;;;;;8.40;99.90;;;;;;5062231;28;19923;-59
2023/12/18 06:47:49;;;;;;;;;;;8.50;99.90;;;;;;5077081;28;19943;-58
2023/12/18 06:50:14;;;;;;;;;;;8.40;99.90;;;;;;5080134;28;19931;-58
2023/12/18 06:52:41;;;;;;;;;;;8.40;99.90;;;;;;5059404;28;19924;-59
2023/12/18 06:55:06;;;;;;;;;;;8.40;99.90;;;;;;5079789;28;20474;-58
2023/12/18 06:57:33;;;;;;;;;;;8.50;99.90;;;;;;5073967;28;19928;-57
2023/12/18 06:59:58;;;;;;;;;;;8.50;99.90;;;;;;5079761;28;19982;-58
2023/12/18 07:02:26;;;;;;;;;;;8.40;99.90;;;;;;5052720;28;20053;-59
2023/12/18 07:04:52;;;;;;;;;;;8.40;99.90;;;;;;5059819;28;19919;-59
2023/12/18 07:07:18;;;;;;;;;;;8.40;99.90;;;;;;5083838;28;19930;-57
2023/12/18 07:09:44;;;;;;;;;;;8.40;99.90;;;;;;5076443;28;19965;-58
2023/12/18 07:12:09;;;;;;;;;;;8.40;99.90;;;;;;5075466;28;19923;-58
2023/12/18 07:14:36;;;;;;;;;;;8.40;99.90;;;;;;5053344;28;19925;-59
2023/12/18 07:17:02;;;;;;;;;;;8.40;99.90;;;;;;5077829;28;19919;-59
2023/12/18 07:19:28;;;;;;;;;;;8.50;99.90;;;;;;5074606;28;20014;-58
2023/12/18 07:21:54;;;;;;;;;;;8.40;99.90;;;;;;5077091;28;19928;-58
2023/12/18 07:24:19;;;;;;;;;;;8.40;99.90;;;;;;5064536;28;20366;-58
2023/12/18 07:26:45;;;;;;;;;;;8.50;99.90;;;;;;5074879;28;19927;-59
2023/12/18 07:29:11;;;;;;;;;;;8.40;99.90;;;;;;5045511;28;20480;-58
2023/12/18 07:31:36;;;;;;;;;;;8.50;99.90;;;;;;5052683;28;19920;-58
2023/12/18 07:34:02;;;;;;;;;;;8.40;99.90;;;;;;5079941;28;20285;-58
2023/12/18 07:36:28;;;;;;;;;;;8.40;99.90;;;;;;5081976;28;19919;-59
2023/12/18 07:38:53;;;;;;;;;;;8.40;99.90;;;;;;5084357;28;19919;-58
2023/12/18 07:41:19;;;;;;;;;;;8.40;99.90;;;;;;5084363;28;19924;-58
2023/12/18 07:43:45;;;;;;;;;;;8.40;99.90;;;;;;5082996;28;19920;-59
2023/12/18 07:46:18;;;;;;;;;;;8.40;99.90;;;;;;5081399;28;20372;-59
2023/12/18 07:48:46;;;;;;;;;;;8.50;99.90;;;;;;5081711;28;19936;-59
2023/12/18 07:51:12;;;;;;;;;;;8.40;99.90;;;;;;5080378;28;19924;-59
2023/12/18 07:53:37;;;;;;;;;;;8.50;99.90;;;;;;5073805;28;20458;-59
2023/12/18 07:56:03;;;;;;;;;;;8.40;99.90;;;;;;5073642;28;20338;-58
2023/12/18 07:58:28;;;;;;;;;;;8.50;99.90;;;;;;5073946;28;19919;-58
2023/12/18 08:00:54;;;;;;;;;;;8.40;99.90;;;;;;5072973;28;19919;-58
2023/12/18 08:03:20;;;;;;;;;;;8.40;99.90;;;;;;5078095;28;20470;-58
2023/12/18 08:05:46;;;;;;;;;;;8.40;99.90;;;;;;5084448;28;19927;-59
2023/12/18 08:08:11;;;;;;;;;;;8.50;99.90;;;;;;5082662;28;19999;-59
2023/12/18 08:10:37;;;;;;;;;;;8.40;99.90;;;;;;5065713;28;19926;-58
2023/12/18 08:13:03;;;;;;;;;;;8.40;99.90;;;;;;5081178;28;19920;-58
2023/12/18 08:15:28;;;;;;;;;;;8.40;99.90;;;;;;5083478;28;19973;-59
2023/12/18 08:17:54;;;;;;;;;;;8.50;99.90;;;;;;5078970;28;20191;-58
2023/12/18 08:20:19;;;;;;;;;;;8.50;99.90;;;;;;5079765;28;20312;-58
2023/12/18 08:22:45;;;;;;;;;;;8.50;99.90;;;;;;5058576;28;20617;-58
2023/12/18 08:25:10;;;;;;;;;;;8.50;99.90;;;;;;5075793;28;19924;-58
2023/12/18 08:27:36;;;;;;;;;;;8.50;99.90;;;;;;5075827;28;19946;-58
2023/12/18 08:30:06;;;;;;;;;;;8.50;99.90;;;;;;5079765;28;19920;-57
2023/12/18 08:32:32;;;;;;;;;;;8.50;99.90;;;;;;5082794;28;19916;-59
2023/12/18 08:35:00;;;;;;;;;;;8.50;99.90;;;;;;5076186;28;20709;-58
2023/12/18 08:37:29;;;;;;;;;;;8.50;99.90;;;;;;5081123;28;20482;-58
2023/12/18 08:39:55;;;;;;;;;;;8.50;99.90;;;;;;5077986;28;19924;-59
2023/12/18 08:42:22;;;;;;;;;;;8.60;99.90;;;;;;5072651;28;19927;-57
2023/12/18 08:44:48;;;;;;;;;;;8.50;99.90;;;;;;5061016;28;20140;-59
2023/12/18 08:47:13;;;;;;;;;;;8.50;99.90;;;;;;5080828;28;20468;-59
2023/12/18 08:49:39;;;;;;;;;;;8.50;99.90;;;;;;5081837;28;20489;-58
2023/12/18 08:52:05;;;;;;;;;;;8.50;99.90;;;;;;5080970;28;20340;-59
2023/12/18 08:54:30;;;;;;;;;;;8.50;99.90;;;;;;5063730;28;19961;-59
2023/12/18 08:56:56;;;;;;;;;;;8.60;99.90;;;;;;5079565;28;19942;-59
2023/12/18 08:59:21;;;;;;;;;;;8.50;99.90;;;;;;5079799;28;20009;-59
2023/12/18 09:01:47;;;;;;;;;;;8.60;99.90;;;;;;5077249;28;20421;-57
2023/12/18 09:04:13;;;;;;;;;;;8.60;99.90;;;;;;5075750;28;20015;-57
2023/12/18 09:06:39;;;;;;;;;;;8.60;99.90;;;;;;5077564;28;19946;-59
2023/12/18 09:09:04;;;;;;;;;;;8.60;99.90;;;;;;5057600;28;19923;-57
2023/12/18 09:11:33;;;;;;;;;;;8.60;99.90;;;;;;5079048;28;19937;-58
2023/12/18 09:13:59;;;;;;;;;;;8.60;99.90;;;;;;5077582;28;19924;-59
2023/12/18 09:16:25;;;;;;;;;;;8.60;99.90;;;;;;5080188;28;19920;-59
2023/12/18 09:18:50;;;;;;;;;;;8.70;99.90;;;;;;5078415;28;19973;-59
2023/12/18 09:21:16;;;;;;;;;;;8.70;99.90;;;;;;5076748;28;19926;-59
2023/12/18 09:23:44;;;;;;;;;;;8.70;99.90;;;;;;5076519;28;20328;-58
2023/12/18 09:26:10;;;;;;;;;;;8.70;99.90;;;;;;5060286;28;19919;-58
2023/12/18 09:28:35;;;;;;;;;;;8.70;99.90;;;;;;5079462;28;20008;-59
2023/12/18 09:31:01;;;;;;;;;;;8.70;99.90;;;;;;5082186;28;19944;-58
2023/12/18 09:33:26;;;;;;;;;;;8.70;99.90;;;;;;5067483;28;20429;-59
2023/12/18 09:35:52;;;;;;;;;;;8.70;99.90;;;;;;5087180;28;19920;-58
2023/12/18 09:38:19;;;;;;;;;;;8.70;99.90;;;;;;5087816;28;20359;-59
2023/12/18 09:40:45;;;;;;;;;;;8.80;99.90;;;;;;5090578;28;20003;-58
2023/12/18 09:43:20;;;;;;;;;;;8.80;99.90;;;;;;5084777;28;19996;-58
2023/12/18 09:45:47;;;;;;;;;;;8.80;99.90;;;;;;5066397;28;19920;-58
2023/12/18 09:48:13;;;;;;;;;;;8.80;99.90;;;;;;5082065;28;19931;-58
2023/12/18 09:50:39;;;;;;;;;;;8.80;99.90;;;;;;5086655;28;19926;-59
2023/12/18 09:53:09;;;;;;;;;;;8.80;99.90;;;;;;5084122;28;19931;-58
2023/12/18 09:55:34;;;;;;;;;;;8.80;99.90;;;;;;5078842;28;19931;-58
2023/12/18 09:58:00;;;;;;;;;;;8.80;99.90;;;;;;5079249;28;20324;-59
2023/12/18 10:00:26;;;;;;;;;;;8.90;99.90;;;;;;5082899;28;19937;-58
2023/12/18 10:02:53;;;;;;;;;;;8.90;99.90;;;;;;5056835;28;19973;-59
2023/12/18 10:05:19;;;;;;;;;;;8.90;99.90;;;;;;5082670;28;20293;-58
2023/12/18 10:07:45;;;;;;;;;;;8.90;99.90;;;;;;5065350;28;19924;-59
2023/12/18 10:10:10;;;;;;;;;;;8.90;99.90;;;;;;5082590;28;20397;-58
2023/12/18 10:12:38;;;;;;;;;;;8.90;99.90;;;;;;5078225;28;19926;-58
2023/12/18 10:15:13;;;;;;;;;;;8.90;99.90;;;;;;5060346;28;20339;-59
2023/12/18 10:17:38;;;;;;;;;;;9.00;99.90;;;;;;5080209;28;20537;-59
2023/12/18 10:20:05;;;;;;;;;;;9.00;99.90;;;;;;5078754;28;19931;-58
2023/12/18 10:22:31;;;;;;;;;;;9.00;99.90;;;;;;5080507;28;20366;-59
2023/12/18 10:24:57;;;;;;;;;;;9.00;99.90;;;;;;5054277;28;20499;-58
2023/12/18 10:27:22;;;;;;;;;;;9.00;99.90;;;;;;5055278;28;19920;-58
2023/12/18 10:29:48;;;;;;;;;;;9.00;99.90;;;;;;5059829;28;19920;-59
2023/12/18 10:32:14;;;;;;;;;;;9.10;99.90;;;;;;5062719;28;19947;-58
2023/12/18 10:34:39;;;;;;;;;;;9.00;99.90;;;;;;5054441;28;19975;-58
2023/12/18 10:37:05;;;;;;;;;;;9.10;99.90;;;;;;5061596;28;19973;-58
2023/12/18 10:39:32;;;;;;;;;;;9.10;99.90;;;;;;5059341;28;20414;-59
2023/12/18 10:42:01;;;;;;;;;;;9.10;99.90;;;;;;5061147;28;19978;-58
2023/12/18 10:44:29;;;;;;;;;;;9.10;99.90;;;;;;5060188;28;20077;-58
2023/12/18 10:46:57;;;;;;;;;;;9.10;99.90;;;;;;5062131;28;19977;-58
2023/12/18 10:49:23;;;;;;;;;;;9.10;99.90;;;;;;5063312;28;19924;-58
2023/12/18 10:51:49;;;;;;;;;;;9.10;99.90;;;;;;5059002;28;20400;-59
2023/12/18 10:54:16;;;;;;;;;;;9.10;99.90;;;;;;5062462;28;19926;-57
2023/12/18 10:56:43;;;;;;;;;;;9.10;99.90;;;;;;5060746;28;19920;-58
2023/12/18 10:59:11;;;;;;;;;;;9.10;99.90;;;;;;5062453;28;20015;-59
2023/12/18 11:01:36;;;;;;;;;;;9.10;99.90;;;;;;5059016;28;20406;-59
2023/12/18 11:04:02;;;;;;;;;;;9.10;99.90;;;;;;5057755;28;19931;-58
2023/12/18 11:06:28;;;;;;;;;;;9.10;99.90;;;;;;5061299;28;19920;-58
2023/12/18 11:08:54;;;;;;;;;;;9.10;99.90;;;;;;5064482;28;19916;-58
2023/12/18 11:11:21;;;;;;;;;;;9.10;99.90;;;;;;5063303;28;20452;-58
2023/12/18 11:14:05;;;;;;;;;;;9.10;99.90;;;;;;5033764;28;19924;-59
2023/12/18 11:16:33;;;;;;;;;;;9.10;99.90;;;;;;5055526;28;19971;-58
2023/12/18 11:19:18;;;;;;;;;;;9.10;99.90;;;;;;5057071;28;20410;-58
2023/12/18 11:21:47;;;;;;;;;;;9.10;99.90;;;;;;5059991;28;20394;-59
2023/12/18 11:24:12;;;;;;;;;;;9.10;99.90;;;;;;5055305;28;19928;-58
2023/12/18 11:26:38;;;;;;;;;;;9.10;99.90;;;;;;5057900;28;19924;-59
2023/12/18 11:29:24;;;;;;;;;;;9.10;99.90;;;;;;5055695;28;20023;-59
2023/12/18 11:31:52;;;;;;;;;;;9.10;99.90;;;;;;5060022;28;20301;-59
2023/12/18 11:34:18;;;;;;;;;;;9.10;99.90;;;;;;5057138;28;19963;-58
2023/12/18 11:36:43;;;;;;;;;;;9.10;99.90;;;;;;5057578;28;20066;-58
2023/12/18 11:39:09;;;;;;;;;;;9.10;99.90;;;;;;5055936;28;19935;-57
2023/12/18 11:41:44;;;;;;;;;;;9.10;99.90;;;;;;5061311;28;20456;-59
2023/12/18 11:44:14;;;;;;;;;;;9.10;99.90;;;;;;5060237;28;19959;-59
2023/12/18 11:46:40;;;;;;;;;;;9.10;99.90;;;;;;5062323;28;19920;-59
2023/12/18 11:49:07;;;;;;;;;;;9.10;99.90;;;;;;5063273;28;19924;-58
2023/12/18 11:51:33;;;;;;;;;;;9.10;99.90;;;;;;5063728;28;19920;-58
2023/12/18 11:54:01;;;;;;;;;;;9.10;99.90;;;;;;5064790;28;19920;-58
2023/12/18 11:56:28;;;;;;;;;;;9.10;99.90;;;;;;5064664;28;20039;-59
2023/12/18 11:58:54;;;;;;;;;;;9.10;99.90;;;;;;5064308;28;19920;-59
2023/12/18 12:01:20;;;;;;;;;;;9.10;99.90;;;;;;5063296;28;19917;-57
2023/12/18 12:03:46;;;;;;;;;;;9.10;99.90;;;;;;5063378;28;19927;-58
2023/12/18 12:06:12;;;;;;;;;;;9.10;99.90;;;;;;5063335;28;19981;-57
2023/12/18 12:08:41;;;;;;;;;;;9.10;99.90;;;;;;5064029;28;20401;-58
2023/12/18 12:11:07;;;;;;;;;;;9.10;99.90;;;;;;5064276;28;19920;-57
2023/12/18 12:13:33;;;;;;;;;;;9.10;99.90;;;;;;5062600;28;19993;-59
2023/12/18 12:15:59;;;;;;;;;;;9.10;99.90;;;;;;5053594;28;20007;-57
2023/12/18 12:18:29;;;;;;;;;;;9.10;99.90;;;;;;5056158;28;20003;-59
2023/12/18 12:20:55;;;;;;;;;;;9.10;99.90;;;;;;5056345;28;20438;-58
2023/12/18 12:23:25;;;;;;;;;;;9.20;99.90;;;;;;5057443;28;20021;-58
2023/12/18 12:25:52;;;;;;;;;;;9.20;99.90;;;;;;5076355;28;20286;-58
2023/12/18 12:28:20;;;;;;;;;;;9.10;99.90;;;;;;5076613;28;20378;-58
2023/12/18 12:30:46;;;;;;;;;;;9.20;99.90;;;;;;5078538;28;19963;-59
2023/12/18 12:33:12;;;;;;;;;;;9.20;99.90;;;;;;5077752;28;20035;-57
2023/12/18 12:35:38;;;;;;;;;;;9.20;99.90;;;;;;5080636;28;19920;-58
2023/12/18 12:38:05;;;;;;;;;;;9.20;99.90;;;;;;5082363;28;19939;-59
2023/12/18 12:40:37;;;;;;;;;;;9.30;99.90;;;;;;5082144;28;19928;-58
2023/12/18 12:43:03;;;;;;;;;;;9.20;99.90;;;;;;5082523;28;19924;-59
2023/12/18 12:45:29;;;;;;;;;;;9.20;99.90;;;;;;5082256;28;19980;-59
2023/12/18 12:47:59;;;;;;;;;;;9.20;99.90;;;;;;5065273;28;19965;-59
2023/12/18 12:50:24;;;;;;;;;;;9.20;99.90;;;;;;5082360;28;19924;-58
2023/12/18 12:52:50;;;;;;;;;;;9.20;99.90;;;;;;5080998;28;19926;-58
2023/12/18 12:55:16;;;;;;;;;;;9.20;99.90;;;;;;5078270;28;20281;-58
2023/12/18 12:57:41;;;;;;;;;;;9.20;99.90;;;;;;5081458;28;19919;-57
2023/12/18 13:00:08;;;;;;;;;;;9.20;99.90;;;;;;5080368;28;19923;-58
2023/12/18 13:02:34;;;;;;;;;;;9.20;99.90;;;;;;5075396;28;20707;-58
2023/12/18 13:05:00;;;;;;;;;;;9.20;99.90;;;;;;5082624;28;19935;-58
2023/12/18 13:07:25;;;;;;;;;;;9.20;99.90;;;;;;5066730;28;19924;-58
2023/12/18 13:09:51;;;;;;;;;;;9.20;99.90;;;;;;5085375;28;19927;-58
2023/12/18 13:12:17;;;;;;;;;;;9.10;99.90;;;;;;5078456;28;19950;-60
2023/12/18 13:14:43;;;;;;;;;;;9.10;99.90;;;;;;5082697;28;20446;-60
2023/12/18 13:17:13;;;;;;;;;;;9.10;99.90;;;;;;5085523;28;20318;-60
2023/12/18 13:19:38;;;;;;;;;;;9.10;99.90;;;;;;5076971;28;19916;-60
2023/12/18 13:22:04;;;;;;;;;;;9.10;99.90;;;;;;5057002;28;20262;-59
2023/12/18 13:24:30;;;;;;;;;;;9.10;99.90;;;;;;5078791;28;19930;-60
2023/12/18 13:26:56;;;;;;;;;;;9.10;99.90;;;;;;5042769;28;20094;-59
2023/12/18 13:29:22;;;;;;;;;;;9.10;99.90;;;;;;5057198;28;19975;-60
2023/12/18 13:31:48;;;;;;;;;;;9.10;99.90;;;;;;5078331;28;19943;-60
2023/12/18 13:34:13;;;;;;;;;;;9.10;99.90;;;;;;5076275;28;19920;-60
2023/12/18 13:36:39;;;;;;;;;;;9.10;99.90;;;;;;5057596;28;19975;-60
2023/12/18 13:39:05;;;;;;;;;;;9.10;99.90;;;;;;5078316;28;19920;-59
2023/12/18 13:41:31;;;;;;;;;;;9.00;99.90;;;;;;5058706;28;19920;-60
2023/12/18 13:43:57;;;;;;;;;;;9.10;99.90;;;;;;5077785;28;19916;-59
2023/12/18 13:46:23;;;;;;;;;;;9.10;99.90;;;;;;5077819;28;19920;-59
2023/12/18 13:48:48;;;;;;;;;;;9.10;99.90;;;;;;5058640;28;20448;-60
2023/12/18 13:51:14;;;;;;;;;;;9.10;99.90;;;;;;5063967;28;20444;-60
2023/12/18 13:53:39;;;;;;;;;;;9.10;99.90;;;;;;5061165;28;20009;-60
2023/12/18 13:56:06;;;;;;;;;;;9.10;99.90;;;;;;5082115;28;19924;-59
2023/12/18 13:58:31;;;;;;;;;;;9.10;99.90;;;;;;5080353;28;19926;-58
2023/12/18 14:00:57;;;;;;;;;;;9.10;99.90;;;;;;5063404;28;19920;-60
2023/12/18 14:03:23;;;;;;;;;;;9.10;99.90;;;;;;5083152;28;20842;-60
2023/12/18 14:05:49;;;;;;;;;;;9.10;99.90;;;;;;5062513;28;20018;-60
2023/12/18 14:08:15;;;;;;;;;;;9.10;99.90;;;;;;5063570;28;19919;-60
2023/12/18 14:10:40;;;;;;;;;;;9.10;99.90;;;;;;5083117;28;19931;-60
2023/12/18 14:13:06;;;;;;;;;;;9.10;99.90;;;;;;5083866;28;20364;-60
2023/12/18 14:15:31;;;;;;;;;;;9.10;99.90;;;;;;5063579;28;19920;-60
2023/12/18 14:17:57;;;;;;;;;;;9.10;99.90;;;;;;5062311;28;19969;-59
2023/12/18 14:20:23;;;;;;;;;;;9.00;99.90;;;;;;5079410;28;20459;-60
2023/12/18 14:22:49;;;;;;;;;;;9.00;99.90;;;;;;5059301;28;19974;-60
2023/12/18 14:25:14;;;;;;;;;;;9.00;99.90;;;;;;5078702;28;20450;-60